sensor_id;sensor_type;location;lat;lon;timestamp;temperature;humidity
71627;DHT22;59475;52.464;13.590;2024-01-27T00:00:10;5.50;81.53
71627;DHT22;59475;52.464;13.590;2024-01-27T00:02:36;5.44;82.27
71627;DHT22;59475;52.464;13.590;2024-01-27T00:05:01;5.35;82.52
71627;DHT22;59475;52.464;13.590;2024-01-27T00:07:27;5.45;82.26
71627;DHT22;59475;52.464;13.590;2024-01-27T00:09:56;5.48;82.18
71627;DHT22;59475;52.464;13.590;2024-01-27T00:12:23;5.45;82.04
71627;DHT22;59475;52.464;13.590;2024-01-27T00:14:48;5.45;81.91
71627;DHT22;59475;52.464;13.590;2024-01-27T00:17:14;5.50;81.82
71627;DHT22;59475;52.464;13.590;2024-01-27T00:19:39;5.48;82.01
71627;DHT22;59475;52.464;13.590;2024-01-27T00:22:05;5.42;81.98
71627;DHT22;59475;52.464;13.590;2024-01-27T00:24:30;5.40;81.68
71627;DHT22;59475;52.464;13.590;2024-01-27T00:26:56;5.37;81.94
71627;DHT22;59475;52.464;13.590;2024-01-27T00:29:22;5.30;82.24
71627;DHT22;59475;52.464;13.590;2024-01-27T00:31:47;5.20;82.49
71627;DHT22;59475;52.464;13.590;2024-01-27T00:34:14;5.27;82.03
71627;DHT22;59475;52.464;13.590;2024-01-27T00:36:39;5.23;82.14
71627;DHT22;59475;52.464;13.590;2024-01-27T00:39:06;5.23;82.27
71627;DHT22;59475;52.464;13.590;2024-01-27T00:41:31;5.23;81.97
71627;DHT22;59475;52.464;13.590;2024-01-27T00:43:56;5.17;82.14
71627;DHT22;59475;52.464;13.590;2024-01-27T00:46:22;5.10;82.36
71627;DHT22;59475;52.464;13.590;2024-01-27T00:48:48;5.06;82.53
71627;DHT22;59475;52.464;13.590;2024-01-27T00:51:13;5.04;82.18
71627;DHT22;59475;52.464;13.590;2024-01-27T00:53:39;5.09;81.88
71627;DHT22;59475;52.464;13.590;2024-01-27T00:56:05;5.12;81.80
71627;DHT22;59475;52.464;13.590;2024-01-27T00:58:30;5.09;81.82
71627;DHT22;59475;52.464;13.590;2024-01-27T01:00:56;5.10;81.48
71627;DHT22;59475;52.464;13.590;2024-01-27T01:03:22;5.12;81.45
71627;DHT22;59475;52.464;13.590;2024-01-27T01:05:47;5.12;81.09
71627;DHT22;59475;52.464;13.590;2024-01-27T01:08:12;5.20;80.87
71627;DHT22;59475;52.464;13.590;2024-01-27T01:10:38;5.22;81.05
71627;DHT22;59475;52.464;13.590;2024-01-27T01:13:03;5.22;80.86
71627;DHT22;59475;52.464;13.590;2024-01-27T01:15:29;5.26;80.82
71627;DHT22;59475;52.464;13.590;2024-01-27T01:17:55;5.22;80.88
71627;DHT22;59475;52.464;13.590;2024-01-27T01:20:20;5.22;80.71
71627;DHT22;59475;52.464;13.590;2024-01-27T01:22:45;5.23;80.52
71627;DHT22;59475;52.464;13.590;2024-01-27T01:25:11;5.28;80.17
71627;DHT22;59475;52.464;13.590;2024-01-27T01:27:36;5.33;80.01
71627;DHT22;59475;52.464;13.590;2024-01-27T01:30:01;5.31;80.44
71627;DHT22;59475;52.464;13.590;2024-01-27T01:32:27;5.33;80.09
71627;DHT22;59475;52.464;13.590;2024-01-27T01:34:52;5.33;80.09
71627;DHT22;59475;52.464;13.590;2024-01-27T01:37:17;5.33;79.95
71627;DHT22;59475;52.464;13.590;2024-01-27T01:39:43;5.28;79.78
71627;DHT22;59475;52.464;13.590;2024-01-27T01:42:08;5.26;80.07
71627;DHT22;59475;52.464;13.590;2024-01-27T01:44:33;5.23;80.03
71627;DHT22;59475;52.464;13.590;2024-01-27T01:46:59;5.23;80.08
71627;DHT22;59475;52.464;13.590;2024-01-27T01:49:25;5.20;80.18
71627;DHT22;59475;52.464;13.590;2024-01-27T01:51:50;5.17;80.43
71627;DHT22;59475;52.464;13.590;2024-01-27T01:54:15;5.14;80.50
71627;DHT22;59475;52.464;13.590;2024-01-27T01:56:42;5.14;80.37
71627;DHT22;59475;52.464;13.590;2024-01-27T01:59:07;5.26;80.34
71627;DHT22;59475;52.464;13.590;2024-01-27T02:01:33;5.23;80.34
71627;DHT22;59475;52.464;13.590;2024-01-27T02:03:59;5.17;80.62
71627;DHT22;59475;52.464;13.590;2024-01-27T02:06:24;5.13;80.73
71627;DHT22;59475;52.464;13.590;2024-01-27T02:08:50;5.13;80.74
71627;DHT22;59475;52.464;13.590;2024-01-27T02:11:16;5.09;80.94
71627;DHT22;59475;52.464;13.590;2024-01-27T02:13:41;5.10;81.04
71627;DHT22;59475;52.464;13.590;2024-01-27T02:16:07;5.10;80.99
71627;DHT22;59475;52.464;13.590;2024-01-27T02:18:32;5.10;81.22
71627;DHT22;59475;52.464;13.590;2024-01-27T02:20:58;5.10;81.29
71627;DHT22;59475;52.464;13.590;2024-01-27T02:23:23;5.13;81.24
71627;DHT22;59475;52.464;13.590;2024-01-27T02:25:49;5.14;81.41
71627;DHT22;59475;52.464;13.590;2024-01-27T02:28:16;5.17;81.38
71627;DHT22;59475;52.464;13.590;2024-01-27T02:30:41;5.14;81.63
71627;DHT22;59475;52.464;13.590;2024-01-27T02:33:06;5.20;81.37
71627;DHT22;59475;52.464;13.590;2024-01-27T02:35:32;5.20;81.70
71627;DHT22;59475;52.464;13.590;2024-01-27T02:37:57;5.17;81.88
71627;DHT22;59475;52.464;13.590;2024-01-27T02:40:22;5.22;81.76
71627;DHT22;59475;52.464;13.590;2024-01-27T02:42:48;5.20;81.89
71627;DHT22;59475;52.464;13.590;2024-01-27T02:45:13;5.19;82.16
71627;DHT22;59475;52.464;13.590;2024-01-27T02:47:39;5.20;82.14
71627;DHT22;59475;52.464;13.590;2024-01-27T02:50:04;5.19;82.34
71627;DHT22;59475;52.464;13.590;2024-01-27T02:52:32;5.19;82.31
71627;DHT22;59475;52.464;13.590;2024-01-27T02:54:57;5.20;82.38
71627;DHT22;59475;52.464;13.590;2024-01-27T02:57:23;5.24;82.38
71627;DHT22;59475;52.464;13.590;2024-01-27T02:59:48;5.23;82.64
71627;DHT22;59475;52.464;13.590;2024-01-27T03:02:15;5.27;82.10
71627;DHT22;59475;52.464;13.590;2024-01-27T03:04:40;5.23;82.10
71627;DHT22;59475;52.464;13.590;2024-01-27T03:07:05;5.24;82.26
71627;DHT22;59475;52.464;13.590;2024-01-27T03:09:31;5.22;82.39
71627;DHT22;59475;52.464;13.590;2024-01-27T03:11:57;5.22;82.30
71627;DHT22;59475;52.464;13.590;2024-01-27T03:14:23;5.23;82.26
71627;DHT22;59475;52.464;13.590;2024-01-27T03:16:49;5.26;82.19
71627;DHT22;59475;52.464;13.590;2024-01-27T03:19:14;5.23;82.31
71627;DHT22;59475;52.464;13.590;2024-01-27T03:21:39;5.14;82.73
71627;DHT22;59475;52.464;13.590;2024-01-27T03:24:06;5.14;82.92
71627;DHT22;59475;52.464;13.590;2024-01-27T03:26:31;5.14;82.87
71627;DHT22;59475;52.464;13.590;2024-01-27T03:28:57;5.09;82.82
71627;DHT22;59475;52.464;13.590;2024-01-27T03:31:23;5.09;82.96
71627;DHT22;59475;52.464;13.590;2024-01-27T03:33:48;5.09;82.93
71627;DHT22;59475;52.464;13.590;2024-01-27T03:36:14;5.07;83.20
71627;DHT22;59475;52.464;13.590;2024-01-27T03:38:40;5.01;83.06
71627;DHT22;59475;52.464;13.590;2024-01-27T03:41:06;5.00;83.28
71627;DHT22;59475;52.464;13.590;2024-01-27T03:43:32;4.96;83.31
71627;DHT22;59475;52.464;13.590;2024-01-27T03:45:58;4.92;83.55
71627;DHT22;59475;52.464;13.590;2024-01-27T03:48:24;4.87;83.92
71627;DHT22;59475;52.464;13.590;2024-01-27T03:50:49;4.79;84.11
71627;DHT22;59475;52.464;13.590;2024-01-27T03:53:14;4.72;83.99
71627;DHT22;59475;52.464;13.590;2024-01-27T03:55:40;4.69;84.24
71627;DHT22;59475;52.464;13.590;2024-01-27T03:58:05;4.68;84.47
71627;DHT22;59475;52.464;13.590;2024-01-27T04:00:31;4.65;84.55
71627;DHT22;59475;52.464;13.590;2024-01-27T04:02:59;4.55;84.99
71627;DHT22;59475;52.464;13.590;2024-01-27T04:05:24;4.49;85.20
71627;DHT22;59475;52.464;13.590;2024-01-27T04:07:50;4.48;85.36
71627;DHT22;59475;52.464;13.590;2024-01-27T04:10:16;4.41;85.60
71627;DHT22;59475;52.464;13.590;2024-01-27T04:12:43;4.41;85.67
71627;DHT22;59475;52.464;13.590;2024-01-27T04:15:09;4.34;85.79
71627;DHT22;59475;52.464;13.590;2024-01-27T04:17:35;4.37;85.84
71627;DHT22;59475;52.464;13.590;2024-01-27T04:20:01;4.31;86.14
71627;DHT22;59475;52.464;13.590;2024-01-27T04:22:26;4.30;86.15
71627;DHT22;59475;52.464;13.590;2024-01-27T04:24:51;4.22;86.55
71627;DHT22;59475;52.464;13.590;2024-01-27T04:27:17;4.27;86.54
71627;DHT22;59475;52.464;13.590;2024-01-27T04:29:42;4.20;86.80
71627;DHT22;59475;52.464;13.590;2024-01-27T04:32:07;4.30;86.64
71627;DHT22;59475;52.464;13.590;2024-01-27T04:34:33;4.27;86.75
71627;DHT22;59475;52.464;13.590;2024-01-27T04:36:58;4.28;86.78
71627;DHT22;59475;52.464;13.590;2024-01-27T04:39:23;4.21;86.90
71627;DHT22;59475;52.464;13.590;2024-01-27T04:41:49;4.30;86.94
71627;DHT22;59475;52.464;13.590;2024-01-27T04:44:14;4.33;86.83
71627;DHT22;59475;52.464;13.590;2024-01-27T04:46:40;4.38;86.71
71627;DHT22;59475;52.464;13.590;2024-01-27T04:49:05;4.36;86.83
71627;DHT22;59475;52.464;13.590;2024-01-27T04:51:30;4.42;86.81
71627;DHT22;59475;52.464;13.590;2024-01-27T04:53:56;4.57;86.41
71627;DHT22;59475;52.464;13.590;2024-01-27T04:56:21;4.64;86.20
71627;DHT22;59475;52.464;13.590;2024-01-27T04:58:46;4.58;86.31
71627;DHT22;59475;52.464;13.590;2024-01-27T05:01:12;4.66;86.13
71627;DHT22;59475;52.464;13.590;2024-01-27T05:03:37;4.64;86.18
71627;DHT22;59475;52.464;13.590;2024-01-27T05:06:03;4.69;86.10
71627;DHT22;59475;52.464;13.590;2024-01-27T05:08:29;4.66;86.26
71627;DHT22;59475;52.464;13.590;2024-01-27T05:10:55;4.66;86.18
71627;DHT22;59475;52.464;13.590;2024-01-27T05:13:20;4.66;86.39
71627;DHT22;59475;52.464;13.590;2024-01-27T05:15:45;4.66;86.28
71627;DHT22;59475;52.464;13.590;2024-01-27T05:18:11;4.68;86.43
71627;DHT22;59475;52.464;13.590;2024-01-27T05:20:36;4.66;86.60
71627;DHT22;59475;52.464;13.590;2024-01-27T05:23:02;4.66;86.62
71627;DHT22;59475;52.464;13.590;2024-01-27T05:25:27;4.68;86.78
71627;DHT22;59475;52.464;13.590;2024-01-27T05:27:52;4.71;86.45
71627;DHT22;59475;52.464;13.590;2024-01-27T05:30:18;4.75;86.17
71627;DHT22;59475;52.464;13.590;2024-01-27T05:32:43;4.72;86.54
71627;DHT22;59475;52.464;13.590;2024-01-27T05:35:08;4.76;86.37
71627;DHT22;59475;52.464;13.590;2024-01-27T05:37:35;4.73;86.37
71627;DHT22;59475;52.464;13.590;2024-01-27T05:40:01;4.73;86.37
71627;DHT22;59475;52.464;13.590;2024-01-27T05:42:27;4.78;86.49
71627;DHT22;59475;52.464;13.590;2024-01-27T05:44:53;4.75;86.45
71627;DHT22;59475;52.464;13.590;2024-01-27T05:47:18;4.76;86.16
71627;DHT22;59475;52.464;13.590;2024-01-27T05:49:43;4.79;86.02
71627;DHT22;59475;52.464;13.590;2024-01-27T05:52:09;4.76;86.27
71627;DHT22;59475;52.464;13.590;2024-01-27T05:54:34;4.79;86.09
71627;DHT22;59475;52.464;13.590;2024-01-27T05:56:59;4.80;86.07
71627;DHT22;59475;52.464;13.590;2024-01-27T05:59:25;4.80;86.16
71627;DHT22;59475;52.464;13.590;2024-01-27T06:01:50;4.85;85.95
71627;DHT22;59475;52.464;13.590;2024-01-27T06:04:16;4.85;85.93
71627;DHT22;59475;52.464;13.590;2024-01-27T06:06:41;4.90;85.78
71627;DHT22;59475;52.464;13.590;2024-01-27T06:09:07;4.95;85.55
71627;DHT22;59475;52.464;13.590;2024-01-27T06:11:41;4.95;85.53
71627;DHT22;59475;52.464;13.590;2024-01-27T06:14:07;4.95;85.74
71627;DHT22;59475;52.464;13.590;2024-01-27T06:16:32;4.96;85.78
71627;DHT22;59475;52.464;13.590;2024-01-27T06:18:58;4.96;85.74
71627;DHT22;59475;52.464;13.590;2024-01-27T06:21:23;5.00;85.65
71627;DHT22;59475;52.464;13.590;2024-01-27T06:23:49;4.97;85.84
71627;DHT22;59475;52.464;13.590;2024-01-27T06:26:14;5.01;85.78
71627;DHT22;59475;52.464;13.590;2024-01-27T06:28:40;5.06;85.66
71627;DHT22;59475;52.464;13.590;2024-01-27T06:31:05;5.03;85.77
71627;DHT22;59475;52.464;13.590;2024-01-27T06:33:32;5.07;85.87
71627;DHT22;59475;52.464;13.590;2024-01-27T06:35:58;5.09;85.68
71627;DHT22;59475;52.464;13.590;2024-01-27T06:38:23;5.14;85.33
71627;DHT22;59475;52.464;13.590;2024-01-27T06:40:48;5.10;85.65
71627;DHT22;59475;52.464;13.590;2024-01-27T06:43:14;5.16;85.44
71627;DHT22;59475;52.464;13.590;2024-01-27T06:45:40;5.17;85.44
71627;DHT22;59475;52.464;13.590;2024-01-27T06:48:06;5.17;85.38
71627;DHT22;59475;52.464;13.590;2024-01-27T06:50:32;5.19;85.33
71627;DHT22;59475;52.464;13.590;2024-01-27T06:52:57;5.19;85.42
71627;DHT22;59475;52.464;13.590;2024-01-27T06:55:22;5.24;85.35
71627;DHT22;59475;52.464;13.590;2024-01-27T06:57:48;5.24;85.49
71627;DHT22;59475;52.464;13.590;2024-01-27T07:00:13;5.22;85.65
71627;DHT22;59475;52.464;13.590;2024-01-27T07:02:40;5.24;85.82
71627;DHT22;59475;52.464;13.590;2024-01-27T07:05:09;5.26;85.69
71627;DHT22;59475;52.464;13.590;2024-01-27T07:07:34;5.23;86.00
71627;DHT22;59475;52.464;13.590;2024-01-27T07:10:00;5.22;86.20
71627;DHT22;59475;52.464;13.590;2024-01-27T07:12:25;5.24;86.00
71627;DHT22;59475;52.464;13.590;2024-01-27T07:14:52;5.23;86.20
71627;DHT22;59475;52.464;13.590;2024-01-27T07:17:17;5.23;86.35
71627;DHT22;59475;52.464;13.590;2024-01-27T07:19:42;5.27;86.10
71627;DHT22;59475;52.464;13.590;2024-01-27T07:22:08;5.26;86.10
71627;DHT22;59475;52.464;13.590;2024-01-27T07:24:33;5.26;86.18
71627;DHT22;59475;52.464;13.590;2024-01-27T07:27:02;5.27;86.21
71627;DHT22;59475;52.464;13.590;2024-01-27T07:29:29;5.31;86.20
71627;DHT22;59475;52.464;13.590;2024-01-27T07:31:54;5.31;85.94
71627;DHT22;59475;52.464;13.590;2024-01-27T07:34:19;5.37;85.30
71627;DHT22;59475;52.464;13.590;2024-01-27T07:36:45;5.38;85.59
71627;DHT22;59475;52.464;13.590;2024-01-27T07:39:11;5.40;85.56
71627;DHT22;59475;52.464;13.590;2024-01-27T07:41:36;5.40;85.67
71627;DHT22;59475;52.464;13.590;2024-01-27T07:44:13;5.41;85.73
71627;DHT22;59475;52.464;13.590;2024-01-27T07:46:41;5.41;85.77
71627;DHT22;59475;52.464;13.590;2024-01-27T07:49:07;5.44;85.46
71627;DHT22;59475;52.464;13.590;2024-01-27T07:51:33;5.44;85.70
71627;DHT22;59475;52.464;13.590;2024-01-27T07:53:59;5.47;85.61
71627;DHT22;59475;52.464;13.590;2024-01-27T07:56:25;5.51;85.44
71627;DHT22;59475;52.464;13.590;2024-01-27T07:58:51;5.56;85.45
71627;DHT22;59475;52.464;13.590;2024-01-27T08:01:17;5.51;85.44
71627;DHT22;59475;52.464;13.590;2024-01-27T08:03:42;5.48;85.62
71627;DHT22;59475;52.464;13.590;2024-01-27T08:06:17;5.52;85.40
71627;DHT22;59475;52.464;13.590;2024-01-27T08:08:47;5.58;85.50
71627;DHT22;59475;52.464;13.590;2024-01-27T08:11:15;5.56;85.60
71627;DHT22;59475;52.464;13.590;2024-01-27T08:13:42;5.56;85.72
71627;DHT22;59475;52.464;13.590;2024-01-27T08:16:08;5.59;85.43
71627;DHT22;59475;52.464;13.590;2024-01-27T08:18:40;5.63;85.29
71627;DHT22;59475;52.464;13.590;2024-01-27T08:21:08;5.59;85.33
71627;DHT22;59475;52.464;13.590;2024-01-27T08:23:33;5.69;84.95
71627;DHT22;59475;52.464;13.590;2024-01-27T08:25:58;5.72;84.60
71627;DHT22;59475;52.464;13.590;2024-01-27T08:28:24;5.78;84.86
71627;DHT22;59475;52.464;13.590;2024-01-27T08:30:49;5.79;84.55
71627;DHT22;59475;52.464;13.590;2024-01-27T08:33:14;5.80;84.70
71627;DHT22;59475;52.464;13.590;2024-01-27T08:35:40;5.82;84.64
71627;DHT22;59475;52.464;13.590;2024-01-27T08:38:06;5.88;84.69
71627;DHT22;59475;52.464;13.590;2024-01-27T08:40:32;5.88;84.51
71627;DHT22;59475;52.464;13.590;2024-01-27T08:42:57;5.92;84.43
71627;DHT22;59475;52.464;13.590;2024-01-27T08:45:23;5.92;84.37
71627;DHT22;59475;52.464;13.590;2024-01-27T08:47:48;5.98;84.26
71627;DHT22;59475;52.464;13.590;2024-01-27T08:50:14;6.00;84.16
71627;DHT22;59475;52.464;13.590;2024-01-27T08:52:39;5.99;84.20
71627;DHT22;59475;52.464;13.590;2024-01-27T08:55:05;6.00;84.32
71627;DHT22;59475;52.464;13.590;2024-01-27T08:57:30;6.06;84.00
71627;DHT22;59475;52.464;13.590;2024-01-27T08:59:56;6.03;83.84
71627;DHT22;59475;52.464;13.590;2024-01-27T09:02:21;6.06;83.93
71627;DHT22;59475;52.464;13.590;2024-01-27T09:04:46;6.07;84.36
71627;DHT22;59475;52.464;13.590;2024-01-27T09:07:12;6.11;83.68
71627;DHT22;59475;52.464;13.590;2024-01-27T09:09:37;6.16;83.91
71627;DHT22;59475;52.464;13.590;2024-01-27T09:12:04;6.20;83.69
71627;DHT22;59475;52.464;13.590;2024-01-27T09:14:30;6.26;83.57
71627;DHT22;59475;52.464;13.590;2024-01-27T09:16:55;6.27;83.36
71627;DHT22;59475;52.464;13.590;2024-01-27T09:19:20;6.30;83.34
71627;DHT22;59475;52.464;13.590;2024-01-27T09:21:46;6.27;83.47
71627;DHT22;59475;52.464;13.590;2024-01-27T09:24:11;6.24;83.42
71627;DHT22;59475;52.464;13.590;2024-01-27T09:26:37;6.28;83.40
71627;DHT22;59475;52.464;13.590;2024-01-27T09:29:02;6.30;83.36
71627;DHT22;59475;52.464;13.590;2024-01-27T09:31:27;6.31;83.11
71627;DHT22;59475;52.464;13.590;2024-01-27T09:33:53;6.28;83.17
71627;DHT22;59475;52.464;13.590;2024-01-27T09:36:19;6.31;83.16
71627;DHT22;59475;52.464;13.590;2024-01-27T09:38:45;6.37;83.05
71627;DHT22;59475;52.464;13.590;2024-01-27T09:41:13;6.41;83.28
71627;DHT22;59475;52.464;13.590;2024-01-27T09:43:43;6.47;83.03
71627;DHT22;59475;52.464;13.590;2024-01-27T09:46:12;6.49;82.70
71627;DHT22;59475;52.464;13.590;2024-01-27T09:48:38;6.47;82.68
71627;DHT22;59475;52.464;13.590;2024-01-27T09:51:04;6.48;82.76
71627;DHT22;59475;52.464;13.590;2024-01-27T09:53:30;6.47;82.51
71627;DHT22;59475;52.464;13.590;2024-01-27T09:55:58;6.51;82.48
71627;DHT22;59475;52.464;13.590;2024-01-27T09:58:24;6.59;82.43
71627;DHT22;59475;52.464;13.590;2024-01-27T10:00:54;6.55;82.47
71627;DHT22;59475;52.464;13.590;2024-01-27T10:03:23;6.58;82.13
71627;DHT22;59475;52.464;13.590;2024-01-27T10:05:51;6.56;82.36
71627;DHT22;59475;52.464;13.590;2024-01-27T10:08:17;6.58;82.32
71627;DHT22;59475;52.464;13.590;2024-01-27T10:10:42;6.59;82.45
71627;DHT22;59475;52.464;13.590;2024-01-27T10:13:10;6.63;82.08
71627;DHT22;59475;52.464;13.590;2024-01-27T10:15:39;6.61;82.19
71627;DHT22;59475;52.464;13.590;2024-01-27T10:18:07;6.65;82.12
71627;DHT22;59475;52.464;13.590;2024-01-27T10:20:33;6.71;82.11
71627;DHT22;59475;52.464;13.590;2024-01-27T10:23:09;6.74;81.80
71627;DHT22;59475;52.464;13.590;2024-01-27T10:25:40;6.78;81.49
71627;DHT22;59475;52.464;13.590;2024-01-27T10:28:08;6.79;81.27
71627;DHT22;59475;52.464;13.590;2024-01-27T10:30:34;6.78;81.07
71627;DHT22;59475;52.464;13.590;2024-01-27T10:32:59;6.81;80.97
71627;DHT22;59475;52.464;13.590;2024-01-27T10:35:25;6.85;80.89
71627;DHT22;59475;52.464;13.590;2024-01-27T10:37:54;6.89;80.37
71627;DHT22;59475;52.464;13.590;2024-01-27T10:40:19;6.92;80.29
71627;DHT22;59475;52.464;13.590;2024-01-27T10:42:45;6.97;80.34
71627;DHT22;59475;52.464;13.590;2024-01-27T10:45:11;7.00;80.18
71627;DHT22;59475;52.464;13.590;2024-01-27T10:47:38;7.03;80.23
71627;DHT22;59475;52.464;13.590;2024-01-27T10:50:08;7.04;80.02
71627;DHT22;59475;52.464;13.590;2024-01-27T10:52:37;7.00;80.22
71627;DHT22;59475;52.464;13.590;2024-01-27T10:55:04;7.04;80.38
71627;DHT22;59475;52.464;13.590;2024-01-27T10:57:33;7.02;80.08
71627;DHT22;59475;52.464;13.590;2024-01-27T11:00:00;6.95;80.17
71627;DHT22;59475;52.464;13.590;2024-01-27T11:02:28;7.07;80.34
71627;DHT22;59475;52.464;13.590;2024-01-27T11:04:57;7.12;80.05
71627;DHT22;59475;52.464;13.590;2024-01-27T11:07:23;7.12;79.65
71627;DHT22;59475;52.464;13.590;2024-01-27T11:09:50;7.06;80.02
71627;DHT22;59475;52.464;13.590;2024-01-27T11:12:17;7.10;80.23
71627;DHT22;59475;52.464;13.590;2024-01-27T11:14:43;7.09;79.95
71627;DHT22;59475;52.464;13.590;2024-01-27T11:17:10;7.06;80.39
71627;DHT22;59475;52.464;13.590;2024-01-27T11:19:35;7.09;80.36
71627;DHT22;59475;52.464;13.590;2024-01-27T11:22:04;7.07;80.73
71627;DHT22;59475;52.464;13.590;2024-01-27T11:24:30;7.09;80.10
71627;DHT22;59475;52.464;13.590;2024-01-27T11:27:02;7.07;80.06
71627;DHT22;59475;52.464;13.590;2024-01-27T11:29:28;7.03;80.45
71627;DHT22;59475;52.464;13.590;2024-01-27T11:31:55;6.97;80.90
71627;DHT22;59475;52.464;13.590;2024-01-27T11:34:21;7.04;81.17
71627;DHT22;59475;52.464;13.590;2024-01-27T11:36:46;7.12;81.13
71627;DHT22;59475;52.464;13.590;2024-01-27T11:41:51;7.23;80.67
71627;DHT22;59475;52.464;13.590;2024-01-27T11:44:16;7.21;80.50
71627;DHT22;59475;52.464;13.590;2024-01-27T11:46:44;7.13;79.88
71627;DHT22;59475;52.464;13.590;2024-01-27T11:49:14;7.21;80.01
71627;DHT22;59475;52.464;13.590;2024-01-27T11:51:40;7.09;80.17
71627;DHT22;59475;52.464;13.590;2024-01-27T11:54:06;7.02;80.63
71627;DHT22;59475;52.464;13.590;2024-01-27T11:56:31;6.99;80.85
71627;DHT22;59475;52.464;13.590;2024-01-27T11:58:56;7.04;80.75
71627;DHT22;59475;52.464;13.590;2024-01-27T12:01:22;7.10;80.83
71627;DHT22;59475;52.464;13.590;2024-01-27T12:03:48;7.09;80.69
71627;DHT22;59475;52.464;13.590;2024-01-27T12:06:13;7.02;81.21
71627;DHT22;59475;52.464;13.590;2024-01-27T12:08:41;7.07;81.24
71627;DHT22;59475;52.464;13.590;2024-01-27T12:11:12;7.07;81.33
71627;DHT22;59475;52.464;13.590;2024-01-27T12:13:37;7.09;81.52
71627;DHT22;59475;52.464;13.590;2024-01-27T12:16:03;7.14;81.48
71627;DHT22;59475;52.464;13.590;2024-01-27T12:18:28;7.07;81.82
71627;DHT22;59475;52.464;13.590;2024-01-27T12:20:55;7.09;81.80
71627;DHT22;59475;52.464;13.590;2024-01-27T12:23:22;7.07;81.79
71627;DHT22;59475;52.464;13.590;2024-01-27T12:25:53;7.09;82.00
71627;DHT22;59475;52.464;13.590;2024-01-27T12:28:19;7.06;82.00
71627;DHT22;59475;52.464;13.590;2024-01-27T12:30:45;7.10;82.08
71627;DHT22;59475;52.464;13.590;2024-01-27T12:33:12;7.04;81.05
71627;DHT22;59475;52.464;13.590;2024-01-27T12:35:38;7.00;80.75
71627;DHT22;59475;52.464;13.590;2024-01-27T12:38:05;7.02;80.96
71627;DHT22;59475;52.464;13.590;2024-01-27T12:40:31;6.93;81.39
71627;DHT22;59475;52.464;13.590;2024-01-27T12:42:56;6.95;81.73
71627;DHT22;59475;52.464;13.590;2024-01-27T12:45:21;6.97;81.68
71627;DHT22;59475;52.464;13.590;2024-01-27T12:47:47;6.99;81.53
71627;DHT22;59475;52.464;13.590;2024-01-27T12:50:12;6.99;81.55
71627;DHT22;59475;52.464;13.590;2024-01-27T12:52:38;6.97;80.93
71627;DHT22;59475;52.464;13.590;2024-01-27T12:55:05;6.88;81.04
71627;DHT22;59475;52.464;13.590;2024-01-27T12:57:30;6.88;80.87
71627;DHT22;59475;52.464;13.590;2024-01-27T12:59:56;6.91;80.96
71627;DHT22;59475;52.464;13.590;2024-01-27T13:02:21;6.99;80.73
71627;DHT22;59475;52.464;13.590;2024-01-27T13:04:46;6.99;80.77
71627;DHT22;59475;52.464;13.590;2024-01-27T13:07:12;7.03;80.24
71627;DHT22;59475;52.464;13.590;2024-01-27T13:09:39;7.02;80.44
71627;DHT22;59475;52.464;13.590;2024-01-27T13:12:05;7.00;80.23
71627;DHT22;59475;52.464;13.590;2024-01-27T13:14:30;7.06;80.07
71627;DHT22;59475;52.464;13.590;2024-01-27T13:16:56;7.10;80.05
71627;DHT22;59475;52.464;13.590;2024-01-27T13:19:24;7.13;79.84
71627;DHT22;59475;52.464;13.590;2024-01-27T13:21:50;7.06;79.78
71627;DHT22;59475;52.464;13.590;2024-01-27T13:24:15;7.12;79.33
71627;DHT22;59475;52.464;13.590;2024-01-27T13:26:40;7.04;79.41
71627;DHT22;59475;52.464;13.590;2024-01-27T13:29:06;6.97;79.71
71627;DHT22;59475;52.464;13.590;2024-01-27T13:31:32;6.92;79.92
71627;DHT22;59475;52.464;13.590;2024-01-27T13:33:58;6.96;79.76
71627;DHT22;59475;52.464;13.590;2024-01-27T13:36:25;6.79;79.99
71627;DHT22;59475;52.464;13.590;2024-01-27T13:38:50;6.68;80.34
71627;DHT22;59475;52.464;13.590;2024-01-27T13:41:17;6.68;80.66
71627;DHT22;59475;52.464;13.590;2024-01-27T13:43:43;6.61;81.03
71627;DHT22;59475;52.464;13.590;2024-01-27T13:46:08;6.59;81.19
71627;DHT22;59475;52.464;13.590;2024-01-27T13:48:34;6.54;81.49
71627;DHT22;59475;52.464;13.590;2024-01-27T13:50:59;6.58;81.75
71627;DHT22;59475;52.464;13.590;2024-01-27T13:53:24;6.63;81.69
71627;DHT22;59475;52.464;13.590;2024-01-27T13:55:50;6.64;81.72
71627;DHT22;59475;52.464;13.590;2024-01-27T13:58:17;6.68;81.84
71627;DHT22;59475;52.464;13.590;2024-01-27T14:00:43;6.72;81.67
71627;DHT22;59475;52.464;13.590;2024-01-27T14:03:08;6.74;81.78
71627;DHT22;59475;52.464;13.590;2024-01-27T14:05:33;6.67;81.81
71627;DHT22;59475;52.464;13.590;2024-01-27T14:07:59;6.69;81.90
71627;DHT22;59475;52.464;13.590;2024-01-27T14:10:24;6.68;82.18
71627;DHT22;59475;52.464;13.590;2024-01-27T14:12:50;6.74;82.05
71627;DHT22;59475;52.464;13.590;2024-01-27T14:15:15;6.71;82.26
71627;DHT22;59475;52.464;13.590;2024-01-27T14:17:42;6.71;82.36
71627;DHT22;59475;52.464;13.590;2024-01-27T14:20:08;6.75;82.41
71627;DHT22;59475;52.464;13.590;2024-01-27T14:22:34;6.71;82.57
71627;DHT22;59475;52.464;13.590;2024-01-27T14:25:00;6.71;82.67
71627;DHT22;59475;52.464;13.590;2024-01-27T14:27:25;6.75;82.56
71627;DHT22;59475;52.464;13.590;2024-01-27T14:29:54;6.78;82.56
71627;DHT22;59475;52.464;13.590;2024-01-27T14:32:20;6.75;82.83
71627;DHT22;59475;52.464;13.590;2024-01-27T14:34:46;6.75;82.87
71627;DHT22;59475;52.464;13.590;2024-01-27T14:37:11;6.75;82.71
71627;DHT22;59475;52.464;13.590;2024-01-27T14:39:39;6.72;82.89
71627;DHT22;59475;52.464;13.590;2024-01-27T14:42:07;6.74;82.90
71627;DHT22;59475;52.464;13.590;2024-01-27T14:44:33;6.69;83.22
71627;DHT22;59475;52.464;13.590;2024-01-27T14:46:59;6.74;83.05
71627;DHT22;59475;52.464;13.590;2024-01-27T14:49:24;6.72;83.16
71627;DHT22;59475;52.464;13.590;2024-01-27T14:51:49;6.71;83.36
71627;DHT22;59475;52.464;13.590;2024-01-27T14:54:15;6.75;83.34
71627;DHT22;59475;52.464;13.590;2024-01-27T14:56:40;6.85;82.89
71627;DHT22;59475;52.464;13.590;2024-01-27T14:59:06;6.88;82.74
71627;DHT22;59475;52.464;13.590;2024-01-27T15:01:33;6.85;82.83
71627;DHT22;59475;52.464;13.590;2024-01-27T15:03:58;6.86;82.82
71627;DHT22;59475;52.464;13.590;2024-01-27T15:06:26;6.85;82.74
71627;DHT22;59475;52.464;13.590;2024-01-27T15:08:51;6.78;82.75
71627;DHT22;59475;52.464;13.590;2024-01-27T15:11:17;6.78;82.69
71627;DHT22;59475;52.464;13.590;2024-01-27T15:13:42;6.76;82.84
71627;DHT22;59475;52.464;13.590;2024-01-27T15:16:08;6.74;83.00
71627;DHT22;59475;52.464;13.590;2024-01-27T15:18:33;6.72;83.06
71627;DHT22;59475;52.464;13.590;2024-01-27T15:20:59;6.64;83.25
71627;DHT22;59475;52.464;13.590;2024-01-27T15:23:24;6.59;83.44